sensor_id;sensor_type;location;lat;lon;timestamp;P1;durP1;ratioP1;P2;durP2;ratioP2
6537;SDS011;3302;52.508;13.454;2023-08-06T00:00:40;7.23;;;6.53;;
6537;SDS011;3302;52.508;13.454;2023-08-06T00:03:05;8.63;;;6.87;;
6537;SDS011;3302;52.508;13.454;2023-08-06T00:05:31;10.93;;;8.47;;
6537;SDS011;3302;52.508;13.454;2023-08-06T00:07:57;7.60;;;6.83;;
6537;SDS011;3302;52.508;13.454;2023-08-06T00:10:23;8.37;;;7.33;;
6537;SDS011;3302;52.508;13.454;2023-08-06T00:12:49;6.67;;;5.90;;
6537;SDS011;3302;52.508;13.454;2023-08-06T00:15:15;7.27;;;6.57;;
6537;SDS011;3302;52.508;13.454;2023-08-06T00:17:41;8.03;;;6.77;;
6537;SDS011;3302;52.508;13.454;2023-08-06T00:20:07;8.13;;;7.10;;
6537;SDS011;3302;52.508;13.454;2023-08-06T00:22:36;7.27;;;6.57;;
6537;SDS011;3302;52.508;13.454;2023-08-06T00:25:03;7.33;;;6.70;;
6537;SDS011;3302;52.508;13.454;2023-08-06T00:27:30;7.77;;;6.33;;
6537;SDS011;3302;52.508;13.454;2023-08-06T00:29:57;9.07;;;7.73;;
6537;SDS011;3302;52.508;13.454;2023-08-06T00:32:24;7.93;;;6.57;;
6537;SDS011;3302;52.508;13.454;2023-08-06T00:34:50;8.40;;;6.70;;
6537;SDS011;3302;52.508;13.454;2023-08-06T00:37:18;7.67;;;6.83;;
6537;SDS011;3302;52.508;13.454;2023-08-06T00:39:44;9.80;;;7.40;;
6537;SDS011;3302;52.508;13.454;2023-08-06T00:42:10;6.80;;;6.10;;
6537;SDS011;3302;52.508;13.454;2023-08-06T00:44:37;6.13;;;5.53;;
6537;SDS011;3302;52.508;13.454;2023-08-06T00:47:05;6.70;;;6.00;;
6537;SDS011;3302;52.508;13.454;2023-08-06T00:49:32;7.33;;;6.43;;
6537;SDS011;3302;52.508;13.454;2023-08-06T00:52:00;8.43;;;7.60;;
6537;SDS011;3302;52.508;13.454;2023-08-06T00:54:26;7.37;;;6.40;;
6537;SDS011;3302;52.508;13.454;2023-08-06T00:56:53;6.97;;;6.37;;
6537;SDS011;3302;52.508;13.454;2023-08-06T00:59:19;7.67;;;6.83;;
6537;SDS011;3302;52.508;13.454;2023-08-06T01:01:46;8.97;;;6.50;;
6537;SDS011;3302;52.508;13.454;2023-08-06T01:04:12;6.57;;;6.07;;
6537;SDS011;3302;52.508;13.454;2023-08-06T01:14:28;6.30;;;5.70;;
6537;SDS011;3302;52.508;13.454;2023-08-06T01:17:02;7.53;;;6.70;;
6537;SDS011;3302;52.508;13.454;2023-08-06T01:19:29;7.03;;;6.33;;
6537;SDS011;3302;52.508;13.454;2023-08-06T01:21:55;8.47;;;7.57;;
6537;SDS011;3302;52.508;13.454;2023-08-06T01:24:21;6.87;;;6.17;;
6537;SDS011;3302;52.508;13.454;2023-08-06T01:27:03;7.00;;;6.30;;
6537;SDS011;3302;52.508;13.454;2023-08-06T01:32:04;7.20;;;6.50;;
6537;SDS011;3302;52.508;13.454;2023-08-06T01:34:33;8.13;;;7.43;;
6537;SDS011;3302;52.508;13.454;2023-08-06T01:37:00;6.80;;;6.20;;
6537;SDS011;3302;52.508;13.454;2023-08-06T01:39:26;6.90;;;6.30;;
6537;SDS011;3302;52.508;13.454;2023-08-06T01:41:52;7.93;;;7.23;;
6537;SDS011;3302;52.508;13.454;2023-08-06T01:44:18;7.47;;;6.77;;
6537;SDS011;3302;52.508;13.454;2023-08-06T01:46:44;7.73;;;7.03;;
6537;SDS011;3302;52.508;13.454;2023-08-06T01:49:09;8.47;;;7.63;;
6537;SDS011;3302;52.508;13.454;2023-08-06T01:51:35;8.13;;;7.37;;
6537;SDS011;3302;52.508;13.454;2023-08-06T01:54:01;8.67;;;7.87;;
6537;SDS011;3302;52.508;13.454;2023-08-06T01:56:27;9.23;;;8.30;;
6537;SDS011;3302;52.508;13.454;2023-08-06T01:58:53;9.70;;;8.67;;
6537;SDS011;3302;52.508;13.454;2023-08-06T02:01:19;10.47;;;9.23;;
6537;SDS011;3302;52.508;13.454;2023-08-06T02:03:45;12.07;;;10.07;;
6537;SDS011;3302;52.508;13.454;2023-08-06T02:06:10;10.97;;;9.97;;
6537;SDS011;3302;52.508;13.454;2023-08-06T02:08:36;9.70;;;8.73;;
6537;SDS011;3302;52.508;13.454;2023-08-06T02:11:02;9.70;;;8.70;;
6537;SDS011;3302;52.508;13.454;2023-08-06T02:13:28;9.17;;;8.27;;
6537;SDS011;3302;52.508;13.454;2023-08-06T02:15:54;9.23;;;8.13;;
6537;SDS011;3302;52.508;13.454;2023-08-06T02:18:19;8.97;;;8.10;;
6537;SDS011;3302;52.508;13.454;2023-08-06T02:20:54;9.10;;;8.20;;
6537;SDS011;3302;52.508;13.454;2023-08-06T02:23:24;9.43;;;8.37;;
6537;SDS011;3302;52.508;13.454;2023-08-06T02:26:01;10.50;;;8.70;;
6537;SDS011;3302;52.508;13.454;2023-08-06T02:28:28;9.93;;;8.27;;
6537;SDS011;3302;52.508;13.454;2023-08-06T02:30:55;7.93;;;7.10;;
6537;SDS011;3302;52.508;13.454;2023-08-06T02:33:21;7.67;;;6.97;;
6537;SDS011;3302;52.508;13.454;2023-08-06T02:35:47;9.30;;;8.43;;
6537;SDS011;3302;52.508;13.454;2023-08-06T02:38:13;8.60;;;7.70;;
6537;SDS011;3302;52.508;13.454;2023-08-06T02:40:45;7.97;;;7.27;;
6537;SDS011;3302;52.508;13.454;2023-08-06T02:43:14;7.30;;;6.60;;
6537;SDS011;3302;52.508;13.454;2023-08-06T02:45:39;7.63;;;6.37;;
6537;SDS011;3302;52.508;13.454;2023-08-06T02:48:05;8.50;;;6.80;;
6537;SDS011;3302;52.508;13.454;2023-08-06T02:50:37;7.60;;;6.80;;
6537;SDS011;3302;52.508;13.454;2023-08-06T02:53:04;7.23;;;6.63;;
6537;SDS011;3302;52.508;13.454;2023-08-06T02:55:31;8.50;;;7.60;;
6537;SDS011;3302;52.508;13.454;2023-08-06T02:57:59;8.90;;;7.13;;
6537;SDS011;3302;52.508;13.454;2023-08-06T03:00:26;7.13;;;6.50;;
6537;SDS011;3302;52.508;13.454;2023-08-06T03:02:52;8.00;;;7.30;;
6537;SDS011;3302;52.508;13.454;2023-08-06T03:05:18;9.90;;;8.90;;
6537;SDS011;3302;52.508;13.454;2023-08-06T03:07:44;9.07;;;8.17;;
6537;SDS011;3302;52.508;13.454;2023-08-06T03:10:10;7.90;;;7.10;;
6537;SDS011;3302;52.508;13.454;2023-08-06T03:12:36;8.00;;;7.10;;
6537;SDS011;3302;52.508;13.454;2023-08-06T03:15:02;7.40;;;6.70;;
6537;SDS011;3302;52.508;13.454;2023-08-06T03:17:28;7.27;;;6.50;;
6537;SDS011;3302;52.508;13.454;2023-08-06T03:19:53;7.70;;;6.90;;
6537;SDS011;3302;52.508;13.454;2023-08-06T03:22:19;7.73;;;7.03;;
6537;SDS011;3302;52.508;13.454;2023-08-06T03:24:45;9.13;;;8.20;;
6537;SDS011;3302;52.508;13.454;2023-08-06T03:27:11;10.27;;;9.30;;
6537;SDS011;3302;52.508;13.454;2023-08-06T03:29:37;10.63;;;9.53;;
6537;SDS011;3302;52.508;13.454;2023-08-06T03:32:02;8.90;;;8.10;;
6537;SDS011;3302;52.508;13.454;2023-08-06T03:34:28;10.73;;;9.63;;
6537;SDS011;3302;52.508;13.454;2023-08-06T03:36:54;8.53;;;7.77;;
6537;SDS011;3302;52.508;13.454;2023-08-06T03:39:20;8.33;;;7.50;;
6537;SDS011;3302;52.508;13.454;2023-08-06T03:41:46;8.57;;;7.67;;
6537;SDS011;3302;52.508;13.454;2023-08-06T03:44:12;8.60;;;7.70;;
6537;SDS011;3302;52.508;13.454;2023-08-06T03:46:37;8.23;;;7.27;;
6537;SDS011;3302;52.508;13.454;2023-08-06T03:49:03;9.67;;;7.67;;
6537;SDS011;3302;52.508;13.454;2023-08-06T03:51:29;9.17;;;8.27;;
6537;SDS011;3302;52.508;13.454;2023-08-06T03:53:55;7.87;;;7.13;;
6537;SDS011;3302;52.508;13.454;2023-08-06T03:56:21;7.93;;;7.07;;
6537;SDS011;3302;52.508;13.454;2023-08-06T03:58:47;7.30;;;6.53;;
6537;SDS011;3302;52.508;13.454;2023-08-06T04:01:13;8.00;;;7.30;;
6537;SDS011;3302;52.508;13.454;2023-08-06T04:03:39;7.60;;;6.90;;
6537;SDS011;3302;52.508;13.454;2023-08-06T04:06:05;7.20;;;6.60;;
6537;SDS011;3302;52.508;13.454;2023-08-06T04:08:32;7.00;;;6.40;;
6537;SDS011;3302;52.508;13.454;2023-08-06T04:10:57;6.70;;;6.10;;
6537;SDS011;3302;52.508;13.454;2023-08-06T04:13:23;7.40;;;6.70;;
6537;SDS011;3302;52.508;13.454;2023-08-06T04:15:49;7.77;;;6.40;;
6537;SDS011;3302;52.508;13.454;2023-08-06T04:18:15;6.63;;;5.93;;
6537;SDS011;3302;52.508;13.454;2023-08-06T04:20:42;6.93;;;6.33;;
6537;SDS011;3302;52.508;13.454;2023-08-06T04:23:09;7.33;;;6.60;;
6537;SDS011;3302;52.508;13.454;2023-08-06T04:25:35;7.40;;;6.70;;
6537;SDS011;3302;52.508;13.454;2023-08-06T04:28:01;6.50;;;6.00;;
6537;SDS011;3302;52.508;13.454;2023-08-06T04:30:27;6.97;;;6.33;;
6537;SDS011;3302;52.508;13.454;2023-08-06T04:32:52;5.93;;;5.43;;
6537;SDS011;3302;52.508;13.454;2023-08-06T04:35:18;7.17;;;6.47;;
6537;SDS011;3302;52.508;13.454;2023-08-06T04:37:44;6.73;;;6.13;;
6537;SDS011;3302;52.508;13.454;2023-08-06T04:40:10;6.20;;;5.70;;
6537;SDS011;3302;52.508;13.454;2023-08-06T04:42:36;7.23;;;6.53;;
6537;SDS011;3302;52.508;13.454;2023-08-06T04:45:02;7.27;;;6.57;;
6537;SDS011;3302;52.508;13.454;2023-08-06T04:47:28;6.90;;;6.00;;
6537;SDS011;3302;52.508;13.454;2023-08-06T04:49:54;7.20;;;6.50;;
6537;SDS011;3302;52.508;13.454;2023-08-06T04:52:19;8.30;;;7.60;;
6537;SDS011;3302;52.508;13.454;2023-08-06T04:54:45;8.93;;;8.03;;
6537;SDS011;3302;52.508;13.454;2023-08-06T04:57:11;8.30;;;7.60;;
6537;SDS011;3302;52.508;13.454;2023-08-06T04:59:37;6.70;;;6.10;;
6537;SDS011;3302;52.508;13.454;2023-08-06T05:02:04;7.27;;;6.67;;
6537;SDS011;3302;52.508;13.454;2023-08-06T05:04:29;8.23;;;7.53;;
6537;SDS011;3302;52.508;13.454;2023-08-06T05:06:56;7.80;;;7.03;;
6537;SDS011;3302;52.508;13.454;2023-08-06T05:09:21;9.13;;;8.33;;
6537;SDS011;3302;52.508;13.454;2023-08-06T05:11:47;8.90;;;8.10;;
6537;SDS011;3302;52.508;13.454;2023-08-06T05:14:14;7.90;;;7.20;;
6537;SDS011;3302;52.508;13.454;2023-08-06T05:16:40;7.10;;;6.40;;
6537;SDS011;3302;52.508;13.454;2023-08-06T05:19:05;7.17;;;6.47;;
6537;SDS011;3302;52.508;13.454;2023-08-06T05:21:31;6.90;;;6.20;;
6537;SDS011;3302;52.508;13.454;2023-08-06T05:23:57;7.23;;;6.53;;
6537;SDS011;3302;52.508;13.454;2023-08-06T05:26:23;8.63;;;7.73;;
6537;SDS011;3302;52.508;13.454;2023-08-06T05:28:49;7.30;;;6.60;;
6537;SDS011;3302;52.508;13.454;2023-08-06T05:31:14;6.47;;;5.90;;
6537;SDS011;3302;52.508;13.454;2023-08-06T05:33:40;6.30;;;5.80;;
6537;SDS011;3302;52.508;13.454;2023-08-06T05:36:06;5.80;;;5.30;;
6537;SDS011;3302;52.508;13.454;2023-08-06T05:38:32;6.63;;;5.93;;
6537;SDS011;3302;52.508;13.454;2023-08-06T05:40:58;6.83;;;5.80;;
6537;SDS011;3302;52.508;13.454;2023-08-06T05:43:24;6.93;;;5.80;;
6537;SDS011;3302;52.508;13.454;2023-08-06T05:45:49;6.73;;;6.13;;
6537;SDS011;3302;52.508;13.454;2023-08-06T05:48:15;9.30;;;8.40;;
6537;SDS011;3302;52.508;13.454;2023-08-06T05:50:41;7.50;;;6.80;;
6537;SDS011;3302;52.508;13.454;2023-08-06T05:53:07;6.60;;;6.00;;
6537;SDS011;3302;52.508;13.454;2023-08-06T05:55:33;7.23;;;6.50;;
6537;SDS011;3302;52.508;13.454;2023-08-06T05:57:59;7.70;;;6.27;;
6537;SDS011;3302;52.508;13.454;2023-08-06T06:00:25;6.70;;;6.10;;
6537;SDS011;3302;52.508;13.454;2023-08-06T06:02:51;6.70;;;6.00;;
6537;SDS011;3302;52.508;13.454;2023-08-06T06:05:17;7.07;;;6.37;;
6537;SDS011;3302;52.508;13.454;2023-08-06T06:07:43;9.20;;;8.13;;
6537;SDS011;3302;52.508;13.454;2023-08-06T06:10:08;6.20;;;5.70;;
6537;SDS011;3302;52.508;13.454;2023-08-06T06:12:34;6.77;;;6.10;;
6537;SDS011;3302;52.508;13.454;2023-08-06T06:15:00;6.60;;;5.87;;
6537;SDS011;3302;52.508;13.454;2023-08-06T06:17:27;6.30;;;5.70;;
6537;SDS011;3302;52.508;13.454;2023-08-06T06:19:53;6.50;;;5.60;;
6537;SDS011;3302;52.508;13.454;2023-08-06T06:22:18;6.83;;;6.23;;
6537;SDS011;3302;52.508;13.454;2023-08-06T06:24:44;6.53;;;5.93;;
6537;SDS011;3302;52.508;13.454;2023-08-06T06:27:10;6.33;;;5.80;;
6537;SDS011;3302;52.508;13.454;2023-08-06T06:29:36;6.60;;;6.10;;
6537;SDS011;3302;52.508;13.454;2023-08-06T06:32:01;7.47;;;6.80;;
6537;SDS011;3302;52.508;13.454;2023-08-06T06:34:27;7.03;;;6.37;;
6537;SDS011;3302;52.508;13.454;2023-08-06T06:36:53;8.10;;;7.40;;
6537;SDS011;3302;52.508;13.454;2023-08-06T06:39:20;9.40;;;8.50;;
6537;SDS011;3302;52.508;13.454;2023-08-06T06:41:46;8.80;;;8.00;;
6537;SDS011;3302;52.508;13.454;2023-08-06T06:44:13;7.23;;;6.50;;
6537;SDS011;3302;52.508;13.454;2023-08-06T06:46:40;8.57;;;7.77;;
6537;SDS011;3302;52.508;13.454;2023-08-06T06:49:06;8.07;;;7.27;;
6537;SDS011;3302;52.508;13.454;2023-08-06T06:51:31;7.53;;;6.73;;
6537;SDS011;3302;52.508;13.454;2023-08-06T06:53:58;7.67;;;7.03;;
6537;SDS011;3302;52.508;13.454;2023-08-06T06:56:24;6.97;;;6.43;;
6537;SDS011;3302;52.508;13.454;2023-08-06T06:58:49;7.00;;;6.40;;
6537;SDS011;3302;52.508;13.454;2023-08-06T07:01:15;7.10;;;6.50;;
6537;SDS011;3302;52.508;13.454;2023-08-06T07:03:41;6.90;;;6.30;;
6537;SDS011;3302;52.508;13.454;2023-08-06T07:06:07;7.50;;;6.80;;
6537;SDS011;3302;52.508;13.454;2023-08-06T07:08:33;8.67;;;6.50;;
6537;SDS011;3302;52.508;13.454;2023-08-06T07:11:05;7.57;;;6.87;;
6537;SDS011;3302;52.508;13.454;2023-08-06T07:13:32;7.23;;;6.53;;
6537;SDS011;3302;52.508;13.454;2023-08-06T07:15:59;6.87;;;6.27;;
6537;SDS011;3302;52.508;13.454;2023-08-06T07:18:25;7.40;;;6.70;;
6537;SDS011;3302;52.508;13.454;2023-08-06T07:20:51;7.23;;;6.63;;
6537;SDS011;3302;52.508;13.454;2023-08-06T07:23:18;6.30;;;5.73;;
6537;SDS011;3302;52.508;13.454;2023-08-06T07:25:47;6.30;;;5.70;;
6537;SDS011;3302;52.508;13.454;2023-08-06T07:28:14;6.17;;;5.67;;
6537;SDS011;3302;52.508;13.454;2023-08-06T07:30:40;6.90;;;6.30;;
6537;SDS011;3302;52.508;13.454;2023-08-06T07:33:07;6.40;;;5.90;;
6537;SDS011;3302;52.508;13.454;2023-08-06T07:35:33;6.23;;;5.73;;
6537;SDS011;3302;52.508;13.454;2023-08-06T07:37:59;5.63;;;5.20;;
6537;SDS011;3302;52.508;13.454;2023-08-06T07:40:25;5.77;;;5.27;;
6537;SDS011;3302;52.508;13.454;2023-08-06T07:42:50;6.03;;;5.53;;
6537;SDS011;3302;52.508;13.454;2023-08-06T07:45:16;7.40;;;5.70;;
6537;SDS011;3302;52.508;13.454;2023-08-06T07:47:42;5.97;;;5.47;;
6537;SDS011;3302;52.508;13.454;2023-08-06T07:50:08;6.10;;;5.60;;
6537;SDS011;3302;52.508;13.454;2023-08-06T07:52:34;6.07;;;5.47;;
6537;SDS011;3302;52.508;13.454;2023-08-06T07:55:01;5.70;;;5.20;;
6537;SDS011;3302;52.508;13.454;2023-08-06T07:57:30;6.80;;;6.20;;
6537;SDS011;3302;52.508;13.454;2023-08-06T07:59:58;6.43;;;5.83;;
6537;SDS011;3302;52.508;13.454;2023-08-06T08:02:24;6.97;;;6.37;;
6537;SDS011;3302;52.508;13.454;2023-08-06T08:04:50;6.13;;;5.63;;
6537;SDS011;3302;52.508;13.454;2023-08-06T08:07:16;8.10;;;7.37;;
6537;SDS011;3302;52.508;13.454;2023-08-06T08:09:41;8.20;;;7.40;;
6537;SDS011;3302;52.508;13.454;2023-08-06T08:12:07;7.73;;;7.07;;
6537;SDS011;3302;52.508;13.454;2023-08-06T08:14:33;7.23;;;6.57;;
6537;SDS011;3302;52.508;13.454;2023-08-06T08:17:01;7.63;;;6.93;;
6537;SDS011;3302;52.508;13.454;2023-08-06T08:19:28;7.67;;;6.70;;
6537;SDS011;3302;52.508;13.454;2023-08-06T08:21:54;7.43;;;6.70;;
6537;SDS011;3302;52.508;13.454;2023-08-06T08:24:20;7.70;;;6.80;;
6537;SDS011;3302;52.508;13.454;2023-08-06T08:26:52;7.50;;;6.80;;
6537;SDS011;3302;52.508;13.454;2023-08-06T08:29:21;7.43;;;6.73;;
6537;SDS011;3302;52.508;13.454;2023-08-06T08:31:47;7.00;;;6.40;;
6537;SDS011;3302;52.508;13.454;2023-08-06T08:34:17;8.77;;;6.70;;
6537;SDS011;3302;52.508;13.454;2023-08-06T08:36:43;6.90;;;6.30;;
6537;SDS011;3302;52.508;13.454;2023-08-06T08:39:12;6.73;;;6.13;;
6537;SDS011;3302;52.508;13.454;2023-08-06T08:41:39;6.67;;;6.17;;
6537;SDS011;3302;52.508;13.454;2023-08-06T08:44:07;7.10;;;6.50;;
6537;SDS011;3302;52.508;13.454;2023-08-06T08:46:35;8.53;;;7.47;;
6537;SDS011;3302;52.508;13.454;2023-08-06T08:49:03;7.77;;;7.07;;
6537;SDS011;3302;52.508;13.454;2023-08-06T08:51:30;7.90;;;7.20;;
6537;SDS011;3302;52.508;13.454;2023-08-06T08:53:56;7.73;;;7.03;;
6537;SDS011;3302;52.508;13.454;2023-08-06T08:56:23;7.77;;;7.07;;
6537;SDS011;3302;52.508;13.454;2023-08-06T08:58:49;8.93;;;8.00;;
6537;SDS011;3302;52.508;13.454;2023-08-06T09:01:16;8.37;;;7.57;;
6537;SDS011;3302;52.508;13.454;2023-08-06T09:03:43;8.57;;;7.77;;
6537;SDS011;3302;52.508;13.454;2023-08-06T09:06:10;9.80;;;8.90;;
6537;SDS011;3302;52.508;13.454;2023-08-06T09:08:39;9.50;;;8.60;;
6537;SDS011;3302;52.508;13.454;2023-08-06T09:11:11;9.43;;;8.63;;
6537;SDS011;3302;52.508;13.454;2023-08-06T09:13:38;8.53;;;7.73;;
6537;SDS011;3302;52.508;13.454;2023-08-06T09:16:04;9.23;;;8.43;;
6537;SDS011;3302;52.508;13.454;2023-08-06T09:18:30;10.73;;;9.73;;
6537;SDS011;3302;52.508;13.454;2023-08-06T09:20:56;9.53;;;8.63;;
6537;SDS011;3302;52.508;13.454;2023-08-06T09:23:29;9.57;;;8.67;;
6537;SDS011;3302;52.508;13.454;2023-08-06T09:25:56;9.40;;;8.50;;
6537;SDS011;3302;52.508;13.454;2023-08-06T09:28:23;8.97;;;8.17;;
6537;SDS011;3302;52.508;13.454;2023-08-06T09:30:49;9.13;;;8.33;;
6537;SDS011;3302;52.508;13.454;2023-08-06T09:33:19;9.70;;;8.90;;
6537;SDS011;3302;52.508;13.454;2023-08-06T09:35:48;9.20;;;8.30;;
6537;SDS011;3302;52.508;13.454;2023-08-06T09:38:16;10.20;;;9.30;;
6537;SDS011;3302;52.508;13.454;2023-08-06T09:40:41;10.77;;;9.77;;
6537;SDS011;3302;52.508;13.454;2023-08-06T09:43:07;9.03;;;8.23;;
6537;SDS011;3302;52.508;13.454;2023-08-06T09:45:36;10.90;;;9.70;;
6537;SDS011;3302;52.508;13.454;2023-08-06T09:48:03;9.50;;;8.70;;
6537;SDS011;3302;52.508;13.454;2023-08-06T09:50:34;8.70;;;7.90;;
6537;SDS011;3302;52.508;13.454;2023-08-06T09:53:02;8.43;;;7.73;;
6537;SDS011;3302;52.508;13.454;2023-08-06T09:55:33;9.30;;;8.50;;
6537;SDS011;3302;52.508;13.454;2023-08-06T09:58:00;8.30;;;7.60;;
6537;SDS011;3302;52.508;13.454;2023-08-06T10:00:26;7.03;;;6.43;;
6537;SDS011;3302;52.508;13.454;2023-08-06T10:02:53;7.27;;;6.60;;
6537;SDS011;3302;52.508;13.454;2023-08-06T10:05:21;7.13;;;6.53;;
6537;SDS011;3302;52.508;13.454;2023-08-06T10:07:48;5.33;;;4.83;;
6537;SDS011;3302;52.508;13.454;2023-08-06T10:10:16;3.87;;;3.57;;
6537;SDS011;3302;52.508;13.454;2023-08-06T10:12:46;5.07;;;3.90;;
6537;SDS011;3302;52.508;13.454;2023-08-06T10:15:16;6.33;;;4.20;;
6537;SDS011;3302;52.508;13.454;2023-08-06T10:17:47;4.17;;;3.83;;
6537;SDS011;3302;52.508;13.454;2023-08-06T10:20:15;5.00;;;4.53;;
6537;SDS011;3302;52.508;13.454;2023-08-06T10:22:44;4.63;;;4.23;;
6537;SDS011;3302;52.508;13.454;2023-08-06T10:25:10;5.50;;;4.83;;
6537;SDS011;3302;52.508;13.454;2023-08-06T10:27:52;5.17;;;4.77;;
6537;SDS011;3302;52.508;13.454;2023-08-06T10:30:20;4.97;;;4.50;;
6537;SDS011;3302;52.508;13.454;2023-08-06T10:32:54;5.10;;;4.60;;
6537;SDS011;3302;52.508;13.454;2023-08-06T10:40:31;4.47;;;4.07;;
6537;SDS011;3302;52.508;13.454;2023-08-06T10:42:58;4.30;;;3.90;;
6537;SDS011;3302;52.508;13.454;2023-08-06T10:45:25;4.20;;;3.90;;
6537;SDS011;3302;52.508;13.454;2023-08-06T10:47:54;4.70;;;3.70;;
6537;SDS011;3302;52.508;13.454;2023-08-06T10:50:21;4.60;;;3.60;;
6537;SDS011;3302;52.508;13.454;2023-08-06T10:52:47;4.40;;;4.00;;
6537;SDS011;3302;52.508;13.454;2023-08-06T10:55:14;3.90;;;3.53;;
6537;SDS011;3302;52.508;13.454;2023-08-06T10:57:47;4.20;;;3.50;;
6537;SDS011;3302;52.508;13.454;2023-08-06T11:00:13;4.13;;;3.80;;
6537;SDS011;3302;52.508;13.454;2023-08-06T11:02:39;3.93;;;3.53;;
6537;SDS011;3302;52.508;13.454;2023-08-06T11:05:06;3.87;;;3.57;;
6537;SDS011;3302;52.508;13.454;2023-08-06T11:07:35;3.80;;;3.50;;
6537;SDS011;3302;52.508;13.454;2023-08-06T11:10:08;3.90;;;3.50;;
6537;SDS011;3302;52.508;13.454;2023-08-06T11:12:35;4.30;;;3.90;;
6537;SDS011;3302;52.508;13.454;2023-08-06T11:15:02;4.10;;;3.33;;
6537;SDS011;3302;52.508;13.454;2023-08-06T11:17:30;3.70;;;3.40;;
6537;SDS011;3302;52.508;13.454;2023-08-06T11:20:00;5.47;;;4.20;;
6537;SDS011;3302;52.508;13.454;2023-08-06T11:22:29;5.70;;;3.90;;
6537;SDS011;3302;52.508;13.454;2023-08-06T11:24:55;4.70;;;4.30;;
6537;SDS011;3302;52.508;13.454;2023-08-06T11:27:22;4.50;;;4.10;;
6537;SDS011;3302;52.508;13.454;2023-08-06T11:29:48;4.80;;;4.40;;
6537;SDS011;3302;52.508;13.454;2023-08-06T11:32:14;5.07;;;4.67;;
6537;SDS011;3302;52.508;13.454;2023-08-06T11:34:39;5.37;;;4.87;;
6537;SDS011;3302;52.508;13.454;2023-08-06T11:37:08;5.10;;;4.60;;
6537;SDS011;3302;52.508;13.454;2023-08-06T11:39:36;5.50;;;4.90;;
6537;SDS011;3302;52.508;13.454;2023-08-06T11:42:03;5.27;;;4.77;;
6537;SDS011;3302;52.508;13.454;2023-08-06T11:44:30;5.40;;;4.90;;
6537;SDS011;3302;52.508;13.454;2023-08-06T11:46:59;5.47;;;4.97;;
6537;SDS011;3302;52.508;13.454;2023-08-06T11:49:48;6.10;;;5.60;;
6537;SDS011;3302;52.508;13.454;2023-08-06T11:52:15;5.67;;;5.17;;
6537;SDS011;3302;52.508;13.454;2023-08-06T11:54:48;6.53;;;5.93;;
6537;SDS011;3302;52.508;13.454;2023-08-06T11:57:24;5.50;;;5.10;;
6537;SDS011;3302;52.508;13.454;2023-08-06T11:59:50;6.10;;;5.50;;
6537;SDS011;3302;52.508;13.454;2023-08-06T12:02:16;6.57;;;5.97;;
6537;SDS011;3302;52.508;13.454;2023-08-06T12:05:01;7.03;;;6.43;;
6537;SDS011;3302;52.508;13.454;2023-08-06T12:07:46;6.20;;;5.60;;
6537;SDS011;3302;52.508;13.454;2023-08-06T12:10:14;6.00;;;5.30;;
6537;SDS011;3302;52.508;13.454;2023-08-06T12:12:41;6.27;;;5.67;;
6537;SDS011;3302;52.508;13.454;2023-08-06T12:15:07;6.43;;;5.93;;
6537;SDS011;3302;52.508;13.454;2023-08-06T12:17:34;5.83;;;5.33;;
6537;SDS011;3302;52.508;13.454;2023-08-06T12:20:01;6.47;;;5.93;;
6537;SDS011;3302;52.508;13.454;2023-08-06T12:22:31;6.40;;;5.80;;
6537;SDS011;3302;52.508;13.454;2023-08-06T12:25:01;6.93;;;6.33;;
6537;SDS011;3302;52.508;13.454;2023-08-06T12:27:29;5.97;;;5.47;;
6537;SDS011;3302;52.508;13.454;2023-08-06T12:29:55;6.13;;;5.63;;
6537;SDS011;3302;52.508;13.454;2023-08-06T12:32:20;7.27;;;6.57;;
6537;SDS011;3302;52.508;13.454;2023-08-06T12:34:47;7.17;;;6.47;;
6537;SDS011;3302;52.508;13.454;2023-08-06T12:37:13;6.47;;;5.87;;
6537;SDS011;3302;52.508;13.454;2023-08-06T12:39:39;6.97;;;5.57;;
6537;SDS011;3302;52.508;13.454;2023-08-06T12:42:05;6.33;;;5.83;;
6537;SDS011;3302;52.508;13.454;2023-08-06T12:44:32;5.83;;;5.40;;
6537;SDS011;3302;52.508;13.454;2023-08-06T12:46:58;6.63;;;6.03;;
6537;SDS011;3302;52.508;13.454;2023-08-06T12:49:24;6.17;;;5.57;;
6537;SDS011;3302;52.508;13.454;2023-08-06T12:51:52;7.13;;;6.43;;
6537;SDS011;3302;52.508;13.454;2023-08-06T12:54:19;7.10;;;6.50;;
6537;SDS011;3302;52.508;13.454;2023-08-06T12:56:46;9.20;;;8.30;;
6537;SDS011;3302;52.508;13.454;2023-08-06T12:59:15;9.33;;;8.43;;
6537;SDS011;3302;52.508;13.454;2023-08-06T13:01:42;8.30;;;7.50;;
6537;SDS011;3302;52.508;13.454;2023-08-06T13:04:08;9.00;;;8.10;;
6537;SDS011;3302;52.508;13.454;2023-08-06T13:06:34;7.93;;;7.23;;
6537;SDS011;3302;52.508;13.454;2023-08-06T13:09:08;8.63;;;7.83;;
6537;SDS011;3302;52.508;13.454;2023-08-06T13:11:35;6.83;;;6.10;;
6537;SDS011;3302;52.508;13.454;2023-08-06T13:14:03;6.80;;;6.20;;
6537;SDS011;3302;52.508;13.454;2023-08-06T13:16:34;7.67;;;6.87;;
6537;SDS011;3302;52.508;13.454;2023-08-06T13:19:01;6.70;;;6.00;;
6537;SDS011;3302;52.508;13.454;2023-08-06T13:21:31;5.83;;;5.30;;
6537;SDS011;3302;52.508;13.454;2023-08-06T13:24:01;6.17;;;5.57;;
6537;SDS011;3302;52.508;13.454;2023-08-06T13:26:28;6.13;;;5.53;;
6537;SDS011;3302;52.508;13.454;2023-08-06T13:28:56;5.37;;;4.87;;
6537;SDS011;3302;52.508;13.454;2023-08-06T13:31:25;7.53;;;5.47;;
6537;SDS011;3302;52.508;13.454;2023-08-06T13:33:52;6.23;;;5.63;;
6537;SDS011;3302;52.508;13.454;2023-08-06T13:36:23;9.80;;;6.40;;
6537;SDS011;3302;52.508;13.454;2023-08-06T13:38:54;5.93;;;5.37;;
6537;SDS011;3302;52.508;13.454;2023-08-06T13:41:21;6.30;;;5.70;;
6537;SDS011;3302;52.508;13.454;2023-08-06T13:43:47;7.57;;;5.70;;
6537;SDS011;3302;52.508;13.454;2023-08-06T13:46:13;6.37;;;5.77;;
6537;SDS011;3302;52.508;13.454;2023-08-06T13:48:44;6.17;;;5.63;;
6537;SDS011;3302;52.508;13.454;2023-08-06T13:51:11;6.07;;;5.47;;
6537;SDS011;3302;52.508;13.454;2023-08-06T13:53:39;6.33;;;5.57;;
6537;SDS011;3302;52.508;13.454;2023-08-06T13:56:06;5.63;;;4.60;;
6537;SDS011;3302;52.508;13.454;2023-08-06T13:58:35;5.73;;;4.97;;
6537;SDS011;3302;52.508;13.454;2023-08-06T14:01:01;5.87;;;5.37;;
6537;SDS011;3302;52.508;13.454;2023-08-06T14:03:27;5.53;;;4.97;;
6537;SDS011;3302;52.508;13.454;2023-08-06T14:05:52;5.60;;;4.97;;
6537;SDS011;3302;52.508;13.454;2023-08-06T14:08:21;5.67;;;5.00;;
6537;SDS011;3302;52.508;13.454;2023-08-06T14:10:48;5.03;;;4.53;;
6537;SDS011;3302;52.508;13.454;2023-08-06T14:13:14;5.10;;;4.60;;
6537;SDS011;3302;52.508;13.454;2023-08-06T14:15:40;4.80;;;4.40;;
6537;SDS011;3302;52.508;13.454;2023-08-06T14:18:06;4.80;;;4.30;;
6537;SDS011;3302;52.508;13.454;2023-08-06T14:20:35;5.47;;;4.90;;
6537;SDS011;3302;52.508;13.454;2023-08-06T14:23:01;4.50;;;4.10;;
6537;SDS011;3302;52.508;13.454;2023-08-06T14:25:27;4.47;;;3.90;;
6537;SDS011;3302;52.508;13.454;2023-08-06T14:27:53;4.20;;;3.80;;
6537;SDS011;3302;52.508;13.454;2023-08-06T14:30:19;5.83;;;4.30;;
6537;SDS011;3302;52.508;13.454;2023-08-06T14:32:45;4.33;;;3.90;;
6537;SDS011;3302;52.508;13.454;2023-08-06T14:35:11;4.67;;;4.17;;
6537;SDS011;3302;52.508;13.454;2023-08-06T14:37:37;4.37;;;3.97;;
6537;SDS011;3302;52.508;13.454;2023-08-06T14:40:05;4.73;;;4.10;;
6537;SDS011;3302;52.508;13.454;2023-08-06T14:42:31;3.80;;;3.50;;
6537;SDS011;3302;52.508;13.454;2023-08-06T14:44:57;5.13;;;3.80;;
6537;SDS011;3302;52.508;13.454;2023-08-06T14:47:22;4.40;;;4.00;;
6537;SDS011;3302;52.508;13.454;2023-08-06T14:49:49;5.27;;;4.13;;
6537;SDS011;3302;52.508;13.454;2023-08-06T14:52:16;4.97;;;4.07;;
6537;SDS011;3302;52.508;13.454;2023-08-06T14:54:42;7.87;;;4.97;;
6537;SDS011;3302;52.508;13.454;2023-08-06T14:57:11;5.50;;;4.80;;
6537;SDS011;3302;52.508;13.454;2023-08-06T14:59:38;6.07;;;3.97;;
6537;SDS011;3302;52.508;13.454;2023-08-06T15:02:05;4.73;;;4.10;;
6537;SDS011;3302;52.508;13.454;2023-08-06T15:04:31;5.37;;;4.53;;
6537;SDS011;3302;52.508;13.454;2023-08-06T15:06:57;5.00;;;4.50;;
6537;SDS011;3302;52.508;13.454;2023-08-06T15:09:24;7.70;;;4.80;;
6537;SDS011;3302;52.508;13.454;2023-08-06T15:11:50;4.33;;;3.93;;
6537;SDS011;3302;52.508;13.454;2023-08-06T15:14:16;5.10;;;4.37;;